createdAt,value
2023-02-17T00:04:28.735Z,11.60
2023-02-17T00:14:31.431Z,13.07
2023-02-17T00:24:39.484Z,11.32
2023-02-17T00:34:42.154Z,10.63
2023-02-17T00:44:46.142Z,10.27
2023-02-17T00:54:48.753Z,8.98
2023-02-17T01:04:52.855Z,9.93
2023-02-17T01:14:55.489Z,10.30
2023-02-17T01:24:59.427Z,10.32
2023-02-17T01:35:02.128Z,9.30
2023-02-17T01:45:35.700Z,8.32
2023-02-17T01:55:40.602Z,9.63
2023-02-17T02:05:44.767Z,10.45
2023-02-17T02:15:53.568Z,10.82
2023-02-17T02:26:35.613Z,11.38
2023-02-17T02:36:44.746Z,11.68
2023-02-17T02:46:56.725Z,14.52
2023-02-17T02:57:34.437Z,16.80
2023-02-17T03:07:41.749Z,17.40
2023-02-17T03:17:45.697Z,17.60
2023-02-17T03:27:48.413Z,18.33
2023-02-17T03:37:52.345Z,18.67
2023-02-17T03:47:54.947Z,15.98
2023-02-17T03:57:58.901Z,14.68
2023-02-17T04:08:01.512Z,17.00
2023-02-17T04:18:05.518Z,17.75
2023-02-17T04:28:08.645Z,18.02
2023-02-17T04:38:13.118Z,17.55
2023-02-17T04:48:15.725Z,16.85
2023-02-17T04:58:20.167Z,14.77
2023-02-17T05:08:23.051Z,14.20
2023-02-17T05:18:27.018Z,15.00
2023-02-17T05:28:29.644Z,11.82
2023-02-17T05:38:33.689Z,13.10
2023-02-17T05:48:37.480Z,10.88
2023-02-17T05:58:41.401Z,12.80
2023-02-17T06:08:44.069Z,10.88
2023-02-17T06:18:48.069Z,11.35
2023-02-17T06:28:50.823Z,12.68
2023-02-17T06:38:54.776Z,11.18
2023-02-17T06:48:57.509Z,9.68
2023-02-17T06:59:02.373Z,11.23
2023-02-17T07:09:04.972Z,9.75
2023-02-17T07:19:09.248Z,13.55
2023-02-17T07:29:12.304Z,12.40
2023-02-17T07:39:16.250Z,11.52
2023-02-17T07:49:18.866Z,14.25
2023-02-17T07:59:22.902Z,14.38
2023-02-17T08:09:43.099Z,15.80
2023-02-17T08:19:49.058Z,13.98
2023-02-17T08:29:52.869Z,15.25
2023-02-17T08:39:58.976Z,15.50
2023-02-17T08:50:01.645Z,14.98
2023-02-17T09:00:09.643Z,11.80
2023-02-17T09:10:13.443Z,12.32
2023-02-17T09:20:24.795Z,11.10
2023-02-17T09:30:28.546Z,12.35
2023-02-17T09:40:42.988Z,10.23
2023-02-17T09:50:51.368Z,10.00
2023-02-17T10:00:58.155Z,8.98
2023-02-17T10:11:04.761Z,8.95
2023-02-17T10:21:15.580Z,8.45
2023-02-17T10:31:38.916Z,6.50
2023-02-17T10:41:44.791Z,4.70
2023-02-17T10:51:47.449Z,5.50
2023-02-17T11:01:52.390Z,5.43
2023-02-17T11:12:01.280Z,4.55
2023-02-17T11:22:07.657Z,3.83
2023-02-17T11:32:13.748Z,4.35
2023-02-17T11:42:21.877Z,3.80
2023-02-17T11:52:39.485Z,3.25
2023-02-17T12:03:15.047Z,3.05
2023-02-17T12:13:30.268Z,3.88
2023-02-17T12:23:55.160Z,2.60
2023-02-17T12:34:03.714Z,2.50
2023-02-17T12:44:13.064Z,3.40
2023-02-17T12:54:21.690Z,2.73
2023-02-17T13:04:26.464Z,2.40
2023-02-17T13:14:40.596Z,2.72
2023-02-17T13:24:53.922Z,2.00
2023-02-17T13:35:05.669Z,2.08
2023-02-17T13:45:28.200Z,1.90
2023-02-17T13:55:32.214Z,1.95
2023-02-17T14:05:41.406Z,1.40
2023-02-17T14:15:54.414Z,1.63
2023-02-17T14:25:57.092Z,1.88
2023-02-17T14:36:03.941Z,1.80
2023-02-17T14:46:06.985Z,1.00
2023-02-17T14:56:18.618Z,1.13
2023-02-17T15:06:27.088Z,1.27
2023-02-17T15:16:32.603Z,1.77
2023-02-17T15:26:35.237Z,1.70
2023-02-17T15:36:39.237Z,1.95
2023-02-17T15:46:42.130Z,1.65
2023-02-17T15:56:49.945Z,2.00
2023-02-17T16:06:52.574Z,1.80
2023-02-17T16:16:56.714Z,1.42
2023-02-17T16:26:59.443Z,2.60
2023-02-17T16:37:11.474Z,2.47
2023-02-17T16:47:20.782Z,1.67
2023-02-17T16:57:26.325Z,1.35
2023-02-17T17:07:30.378Z,2.33
2023-02-17T17:17:39.737Z,1.38
2023-02-17T17:27:42.616Z,2.30
2023-02-17T17:37:46.759Z,1.83
2023-02-17T17:47:49.379Z,1.70
2023-02-17T17:57:53.636Z,1.85
2023-02-17T18:07:56.532Z,1.48
2023-02-17T18:18:00.524Z,2.45
2023-02-17T18:28:03.183Z,2.28
2023-02-17T18:38:07.459Z,1.88
2023-02-17T18:48:10.077Z,1.60
2023-02-17T18:58:14.148Z,2.58
2023-02-17T19:08:16.724Z,1.60
2023-02-17T19:18:20.673Z,2.25
2023-02-17T19:28:23.524Z,2.03
2023-02-17T19:38:29.532Z,2.47
2023-02-17T19:48:32.985Z,2.20
2023-02-17T19:58:37.197Z,2.67
2023-02-17T20:08:40.369Z,2.28
2023-02-17T20:18:46.194Z,1.30
2023-02-17T20:28:49.461Z,3.17
2023-02-17T20:38:53.529Z,2.00
2023-02-17T20:48:56.591Z,1.65
2023-02-17T20:59:00.928Z,1.73
2023-02-17T21:09:06.776Z,1.30
2023-02-17T21:19:10.732Z,2.80
2023-02-17T21:29:13.333Z,1.90
2023-02-17T21:39:17.278Z,1.67
2023-02-17T21:49:20.031Z,2.20
2023-02-17T21:59:24.036Z,2.92
2023-02-17T22:09:26.673Z,2.13
2023-02-17T22:19:31.629Z,2.00
2023-02-17T22:29:34.325Z,1.73
2023-02-17T22:39:38.278Z,1.50
2023-02-17T22:49:41.391Z,1.48
2023-02-17T22:59:45.394Z,1.80
2023-02-17T23:09:48.072Z,1.70
2023-02-17T23:19:52.026Z,2.75
2023-02-17T23:29:54.914Z,1.58
2023-02-17T23:39:58.874Z,1.58
2023-02-17T23:50:01.681Z,2.58
